ジョン・F・ケネディ国際空港の過去48時間の天気

ジョン・F・ケネディ国際空港 (New York, Kennedy International Airport)

現在時刻: 1/18 16:42 EST (1/18 21:42 UTC) 以下の時間は現地時間です。

過去48時間のMETAR気象情報
時間 風向 風速(m/s) 視程 気温(℃) 湿度(%) 気圧(hPa) 天気現象
18 15:51 北西 8 10km以上 0.6 39 1013.9
18 14:51 北西 8 10km以上 0.6 38 1013.6
18 13:51 西北西 9 10km以上 0.6 36 1013.6
18 12:51 北西 7 10km以上 0.6 36 1014.2
18 11:51 西北西 7 10km以上 -0.6 39 1015.5
18 10:51 北西 7 10km以上 -1.7 42 1017.4
18 09:51 西 4 10km以上 -2.8 46 1018.7
18 08:51 北西 6 10km以上 -5 52 1017.3
18 07:51 北西 6 10km以上 -5.6 60 1018.2
18 06:51 北西 3 10km以上 -7.2 64 1019.3
18 05:51 北北西 5 10km以上 -6.7 62 1017.6
18 04:51 北西 9 10km以上 -6.7 65 1017.2
18 03:51 北北西 9 10km以上 -6.1 62 1018.4
18 02:51 北西 8 10km以上 -6.1 62 1020
18 01:51 北西 6 10km以上 -6.1 65 1020.3
18 00:51 北西 6 10km以上 -5.6 65 1020.9
18 00:29 北西 5 10km以上 -5.6 68 1021
17 23:51 北北西 7 10km以上 -5 68 1021.5
17 22:51 北西 7 10km以上 -4.4 68 1021.9
17 21:51 北西 7 10km以上 -3.9 68 1022.6
17 20:51 西北西 7 10km以上 -3.3 68 1022
17 20:37 西北西 7 10km以上 -2.8 66 1022
17 19:51 西北西 7 10km以上 -2.8 68 1022
17 18:51 北西 7 10km以上 -1.7 72 1021.7
17 18:37 北西 7 10km以上 -1.7 75 1022
17 17:51 北西 7 10km以上 -1.1 75 1022.3
17 16:51 北西 7 10km以上 0 78 1021.7
17 15:51 北西 5 10km以上 1.1 88 1022.1
17 14:51 北北西 6 10km以上 1.7 85 1021.9
17 14:45 北西 6 10km以上 2 81 1022
17 13:51 北西 7 10km以上 1.1 92 1021.8
17 13:36 北西 6 10km以上 1.1 92 1022 弱い雪
17 12:51 北西 7 4,000m 0.6 92 1022.7 弱い雪 もや
17 12:46 北西 7 4,000m 1 93 1023 弱い雪 もや
17 12:39 北西 7 4,000m 1.1 92 1023 弱い雪 もや
17 12:24 北西 7 4,850m 1.1 96 1023 弱い雪 もや
17 11:51 西北西 6 4,850m 1.7 96 1023.7 弱い雪 もや
17 11:26 北西 5 3,200m 1.7 96 1024 弱い雪 もや
17 10:51 北西 4 2,000m 1.1 96 1024.6 弱い雪 もや
17 10:15 北北西 4 1,600m 0.6 100 1025 弱い雪 もや
17 09:51 北北西 5 3,200m 1.1 96 1024.9 弱い雪 もや
17 09:07 北北西 6 3,200m 1.1 96 1025 弱い雪 弱い雨 もや
17 08:51 北北西 6 4,000m 1.1 100 1024.8 弱い雨 弱い雪 もや
17 08:08 北北西 6 4,000m 1.7 100 1025 弱い雨 もや
17 07:51 北西 5 2,400m 2.2 96 1024.5 弱い雨 もや
17 06:51 北西 4 1,600m 2.2 100 1024.4 弱い雨 もや
17 05:51 北北東 2 6,450m 2.2 100 1024.5 弱い雨 もや
17 05:43 北北東 2 6,450m 2.8 100 1025 弱い雨 もや
17 04:51 北東 3 8,050m 2.2 100 1024.1 弱い雨 もや
17 03:51 3 10km以上 1.7 100 1024.9 弱い雨 もや
17 02:51 3 10km以上 2.2 92 1025.7 弱い雨
17 01:51 3 10km以上 2.2 89 1026
17 00:51 3 10km以上 2.8 89 1026.5
17 00:39 北北東 3 10km以上 2.2 92 1027
16 23:51 北北東 3 10km以上 2.2 89 1027.2
16 22:51 北東 3 10km以上 1.7 88 1028.2
16 21:51 3 10km以上 1.1 85 1028.8
16 20:51 北東 3 10km以上 0.6 88 1029.2
16 19:51 北東 3 10km以上 1.1 85 1029.6
16 18:51 東北東 3 10km以上 1.7 88 1030
16 17:51 3 10km以上 1.7 88 1029.9
16 17:16 3 10km以上 2.2 85 1030
16 16:51 3 10km以上 2.8 82 1030
KJFK 182051Z 31015KT 10SM CLR 01/M12 A2994 RMK AO2 SLP139 T00061117 55003 $
KJFK 181951Z 31015G20KT 10SM FEW250 01/M12 A2993 RMK AO2 SLP136 T00061122 $
KJFK 181851Z 30017KT 10SM FEW250 01/M13 A2993 RMK AO2 SLP136 T00061128 $
KJFK 181751Z 31014KT 10SM FEW250 01/M13 A2995 RMK AO2 SLP142 T00061128 10006 21072 56045 $
KJFK 181651Z 29014KT 10SM FEW250 M01/M13 A2999 RMK AO2 SLP155 T10061128 $
KJFK 181551Z 32013KT 10SM FEW200 M02/M13 A3005 RMK AO2 SLP174 T10171128 $
KJFK 181451Z 28007KT 10SM FEW200 M03/M13 A3009 RMK AO2 SLP187 T10281128 55006 $
KJFK 181351Z 31011KT 10SM FEW095 SCT200 M05/M13 A3005 RMK AO2 SLP173 T10501133 $
KJFK 181251Z 32012KT 10SM FEW095 SCT180 M06/M12 A3007 RMK AO2 SLP182 T10561122 $
KJFK 181151Z 32005KT 10SM FEW110 FEW180 M07/M13 A3010 RMK AO2 SLP193 70015 T10721128 11056 21072 53009 $
KJFK 181051Z 33010KT 10SM CLR M07/M13 A3005 RMK AO2 SLP176 T10671128 $
KJFK 180951Z 32017KT 10SM CLR M07/M12 A3004 RMK AO2 SLP172 T10671122 $
KJFK 180851Z 33018G23KT 10SM CLR M06/M12 A3008 RMK AO2 SLP184 T10611122 58025 $
KJFK 180751Z 32016KT 10SM CLR M06/M12 A3013 RMK AO2 SLP200 T10611122 $
KJFK 180651Z 32012KT 10SM FEW170 M06/M12 A3013 RMK AO2 SLP203 T10611117 $
KJFK 180551Z 31011KT 10SM SCT025 SCT180 M06/M11 A3015 RMK AO2 SLP209 T10561111 11017 21056 56017 $
KJFK 180529Z 31009KT 10SM SCT025 SCT180 M06/M11 A3016 RMK AO2 T10561106 $
KJFK 180451Z 33013KT 10SM BKN024 M05/M10 A3017 RMK AO2 SLP215 T10501100 401221050 $
KJFK 180351Z 32013KT 10SM BKN022 M04/M09 A3018 RMK AO2 SLP219 T10441094 $
KJFK 180251Z 32013KT 10SM OVC022 M04/M09 A3020 RMK AO2 SLP226 T10391089 53008 $
KJFK 180151Z 30014KT 10SM OVC021 M03/M08 A3018 RMK AO2 SLP220 T10331083 $
KJFK 180137Z 30014KT 10SM OVC021 M03/M08 A3018 RMK AO2 T10281083 $
KJFK 180051Z 30014KT 10SM SCT021 OVC180 M03/M08 A3018 RMK AO2 SLP220 T10281078 $
KJFK 172351Z 31013KT 10SM SCT028 BKN170 OVC250 M02/M06 A3018 RMK AO2 SLP217 931000 60000 T10171061 10017 21017 58003 $
KJFK 172337Z 31014KT 10SM SCT027 BKN170 OVC250 M02/M06 A3018 RMK AO2 T10171056 $
KJFK 172251Z 31013KT 10SM BKN020 BKN140 OVC250 M01/M05 A3019 RMK AO2 SLP223 T10111050 $
KJFK 172151Z 31013KT 10SM OVC016 00/M03 A3017 RMK AO2 SLP217 T00001033 $
KJFK 172051Z 32010KT 10SM BKN017 OVC030 01/M01 A3019 RMK AO2 SLP221 60000 T00111006 52003 $
KJFK 171951Z 33011KT 10SM BKN015 OVC200 02/M01 A3018 RMK AO2 SLP219 T00171006 $
KJFK 171945Z 32012KT 10SM BKN015 OVC200 02/M01 A3018 RMK AO2 $
KJFK 171851Z 32013KT 8SM BKN012 BKN026 OVC090 01/00 A3018 RMK AO2 SNE50 SLP218 BKN012 V SCT P0000 T00110000 $
KJFK 171836Z 32011KT 7SM -SN BKN012 BKN038 OVC095 01/00 A3018 RMK AO2 P0000 T00110000 $
KJFK 171751Z 32013KT 2 1/2SM -SN BR BKN011 OVC034 01/M01 A3020 RMK AO2 SFC VIS 4 SLP227 CIG 009V013 931002 P0000 60015 T00061006 10022 20006 58022 $
KJFK 171746Z 31014KT 2 1/2SM -SN BR BKN011 OVC036 01/00 A3021 RMK AO2 SFC VIS 3 CIG 009V013 P0000
KJFK 171739Z 31013KT 2 1/2SM -SN BR BKN009 OVC013 01/00 A3022 RMK AO2 TWR VIS 3 P0000 T00110000
KJFK 171724Z 31013KT 3SM -SN BR FEW006 BKN010 OVC036 01/01 A3022 RMK AO2 SFC VIS 5 CIG 008V013 P0000 T00110006
KJFK 171651Z 30011KT 3SM -SN BR BKN007 BKN018 OVC034 02/01 A3023 RMK AO2 SFC VIS 5 SLP237 P0001 T00170011
KJFK 171626Z 32009KT 2SM -SN BR BKN007 OVC025 02/01 A3025 RMK AO2 SFC VIS 3 P0001 T00170011
KJFK 171551Z 32008KT 1 1/4SM -SN BR FEW000 BKN006 OVC026 01/01 A3026 RMK AO2 SFC VIS 2 1/2 SLP246 SN FEW000 P0004 T00110006
KJFK 171515Z 33008KT 1SM R04R/P6000FT -SN BR SCT000 BKN006 OVC018 01/01 A3027 RMK AO2 SFC VIS 1 3/4 SN SCT000 P0002 T00060006
KJFK 171451Z 34009KT 2SM -SN BR FEW000 SCT006 OVC015 01/01 A3027 RMK AO2 SFC VIS 2 1/2 RAE15 SLP249 CIG 013V017 SN FEW000 SCT V BKN P0004 60010 T00110006 51005
KJFK 171407Z 33011KT 2SM -SNRA BR FEW000 SCT007 OVC013 01/01 A3027 RMK AO2 SFC VIS 2 1/2 SN FEW000 SCT V BKN P0002 T00110006
KJFK 171351Z 33011KT 2 1/2SM -RASN BR BKN006 OVC013 01/01 A3027 RMK AO2 SFC VIS 4 SNB41 SLP248 P0004 T00110011
KJFK 171308Z 33012KT 2 1/2SM -RA BR OVC005 02/02 A3026 RMK AO2 SFC VIS 5 P0001 T00170017
KJFK 171251Z 32010KT 1 1/2SM -RA BR OVC004 02/02 A3026 RMK AO2 SFC VIS 4 SLP245 CIG 003V005 P0002 T00220017
KJFK 171151Z 32008KT 1SM R04R/P6000FT -RA BR OVC003 02/02 A3025 RMK AO2 SFC VIS 5 SLP244 P0000 60007 70007 T00220022 10028 20017 56005
KJFK 171051Z 02004KT 4SM -RA BR OVC004 02/02 A3026 RMK AO2 SLP245 P0001 T00220022
KJFK 171043Z 02004KT 4SM -RA BR BKN004 OVC024 03/03 A3026 RMK AO2 P0001 T00280028
KJFK 170951Z 05005KT 5SM -RA BR BKN011 BKN026 OVC060 02/02 A3025 RMK AO2 SLP241 P0002 T00220022
KJFK 170851Z 35006KT 6SM -RA BR BKN010 OVC025 02/02 A3027 RMK AO2 SLP249 P0004 60004 T00170017 58015
KJFK 170751Z 01006KT 8SM -RA BKN011 OVC041 02/01 A3029 RMK AO2 RAB33 SLP257 P0000 T00220011
KJFK 170651Z 01005KT 10SM BKN013 OVC037 02/01 A3030 RMK AO2 SLP260 T00220006
KJFK 170551Z 35005KT 10SM OVC014 03/01 A3031 RMK AO2 SLP265 T00280011 10028 20006 58023
KJFK 170539Z 02005KT 10SM BKN014 OVC038 02/01 A3032 RMK AO2 T00220011
KJFK 170451Z 03005KT 10SM FEW019 BKN035 OVC150 02/01 A3033 RMK AO2 SLP272 T00220006 400391061
KJFK 170351Z 05005KT 10SM SCT025 OVC160 02/00 A3036 RMK AO2 SLP282 T00170000
KJFK 170251Z 01005KT 10SM FEW023 OVC180 01/M01 A3038 RMK AO2 SLP288 T00111011 58012
KJFK 170151Z 05006KT 10SM FEW021 SCT034 BKN150 OVC200 01/M01 A3040 RMK AO2 SLP292 T00061011
KJFK 170051Z 04005KT 10SM BKN033 BKN150 OVC220 01/M01 A3041 RMK AO2 SLP296 T00111011
KJFK 162351Z 07005KT 10SM BKN033 OVC200 02/00 A3042 RMK AO2 SLP300 T00170000 10039 20017 55001
KJFK 162251Z 09005KT 10SM SCT027 BKN034 BKN200 02/00 A3041 RMK AO2 SLP299 T00170000
KJFK 162216Z 10005KT 10SM FEW017 BKN029 BKN250 02/00 A3042 RMK AO2 T00220000
KJFK 162151Z 10006KT 10SM FEW017 BKN030 BKN250 03/00 A3042 RMK AO2 SLP300 T00280000